Terminal Aerodrome Forecast
Issued by NWS Duluth, MN

Home | Current Version | Previous Version | Text Only | Print | Product List | Glossary Off
Versions: 1 2 3 4 5 6 7 8 9 10 11 12 13

595
FTUS43 KDLH 240540
TAFINL
TAF
KINL 240540Z 2406/2506 18004KT P6SM VCSH OVC028
      TEMPO 2406/2408 5SM -TSRA BR BKN025CB
     FM240800 19004KT 6SM BR BKN017 OVC025
     FM241300 26008G14KT P6SM BKN017
     FM241700 28014G21KT P6SM BKN040
     FM250000 28008KT P6SM SCT040=

USA.gov is the U.S. government's official web portal to all federal, state and local government web resources and services.